Phnom Penh International Airport
VDPP : now visible

Airfield :











YOU CAN JOIN US ON...

 
LOGIN :

Register | Disclaimer

   EN    FR    IT 

 









Legend :    VFR   Marginal VFR   IFR   Intensive IFR   Very Intensive IFR
Visi :
Ceiling :
>= 8 km
>= 3000ft
5 to 8 km
1000 to 3000 ft
1500m to 5 km
500 to 1000 ft
800 to 1500m
200 to 500 ft
< 800m
< 200 ft
Symbols :   Thunderstorms  Fog  Heavy snow  Heavy precipitations  Wind > 20 kt






- Airport Elevation : 40 ft
- IATA code : PNH


VDPP - Phnom Penh International

CURRENT METAR :
  • 020600Z 07005KT 020V110 9999 SCT017 34/22 Q1010

EXPIRED METARs :
  • 020530Z 07005KT 030V110 9999 SCT017 33/22 Q1011
  • 020500Z VRB05KT 9999 SCT017 32/22 Q1011
  • 020430Z VRB04KT 9999 SCT017 32/22 Q1012
  • 012100Z 20005KT 9000 FEW017 26/22 Q1010
  • 020400Z VRB03KT 9999 SCT017 31/22 Q1012
  • 020330Z 13002KT 9999 FEW017 32/22 Q1013
  • 020300Z 10001KT 9999 FEW017 31/23 Q1013
  • 020230Z VRB02KT 9999 FEW017 SCT040 31/23 Q1013
  • 020200Z VRB02KT 9999 FEW017 SCT040 29/23 Q1013
  • 020130Z VRB02KT 9999 FEW017 SCT040 29/23 Q1013

TAF TAF VDPP
Valid from the 02 at 06:00 until the 03 at 00:00 UTC


020500Z 0206/0224 10008KT 9999 SCT017
VDPP FIR / Asia



MET'MAP, your aeronautical weather chart ! - Copyright ORBIFLY December 2007 - Disclaimer

ORBIFLY MET'MAP TEAM :

Programming & Development : Alexandra Zaïnal
Original concept : Baudouin d'Aumeries
Technical & hardware support : Manuel Goepfert
Assistance : Marc-Olivier Méhu




SOURCES & CREDITS :

   NOAA       Earth
Advisory